Flight Track Log - Related Links

Times and Time Zones

All times are in EDT time to prevent confusion due to time zone crossing. See the SWA22 flight status page for this flight to view local times or setup timezone preferences in your user account.

Time Position Orientation Groundspeed Altitude Reporting Facility
EDT Latitude Longitude Course Direction KTS MPH feet Rate Location/Type
Thu 01:12:52 PM 29.6333 -95.2653 76° East 161 185 700  Level Houston Center
Thu 01:13:35 PM 29.6406 -95.2308 76° East 233 268 1,800 1,786 Climbing Houston Center
Thu 01:14:16 PM 29.6811 -95.2286 North 248 285 3,200 2,459 Climbing Houston Center
Thu 01:14:36 PM 29.7142 -95.2314 356° North 290 334 4,300 2,419 Climbing Houston Center
Thu 01:15:18 PM 29.7614 -95.2336 358° North 275 316 5,700 2,951 Climbing Houston Center
Thu 01:15:37 PM 29.8050 -95.2372 356° North 318 366 7,300 3,774 Climbing Houston Center
Thu 01:16:20 PM 29.8606 -95.2553 344° North 302 348 9,600 2,914 Climbing Houston Center
Thu 01:17:22 PM 29.9414 -95.2853 342° North 304 350 12,400 2,129 Climbing Houston Center
Thu 01:18:24 PM 30.0278 -95.3156 343° North 321 369 14,000 1,536 Climbing Houston Center
Thu 01:19:27 PM 30.1289 -95.3481 344° North 369 425 15,600 1,632 Climbing Houston Center
Thu 01:20:29 PM 30.2369 -95.3850 344° North 396 456 17,400 2,274 Climbing Houston Center
Thu 01:21:31 PM 30.3489 -95.4153 347° North 410 472 20,300 2,661 Climbing Houston Center
Thu 01:22:33 PM 30.4750 -95.4606 343° North 396 456 22,900 1,839 Climbing Houston Center
Thu 01:23:35 PM 30.5894 -95.4894 348° North 422 486 24,100 1,597 Climbing Houston Center
Thu 01:24:37 PM 30.7039 -95.5144 349° North 428 493 26,200 1,694 Climbing Houston Center
Thu 01:25:39 PM 30.8203 -95.5400 349° North 422 486 27,600 1,152 Climbing Houston Center
Thu 01:26:42 PM 30.9392 -95.5672 349° North 429 494 28,600 672 Climbing Houston Center
Thu 01:27:44 PM 31.0847 -95.5989 349° North 436 502 29,000 -242 Climbing Houston Center
Thu 01:28:46 PM 31.2047 -95.6269 349° North 437 503 28,100 -857 Descending Houston Center
Thu 01:29:15 PM 31.2531 -95.6369 350° North 437 503 27,700 -944 Descending Fort Worth Center
Thu 01:30:15 PM 31.3683 -95.6714 346° North 424 488 26,700 -950 Descending Fort Worth Center
Thu 01:31:15 PM 31.4714 -95.7353 332° Northwest 419 482 25,800 -900 Descending Fort Worth Center
Thu 01:32:15 PM 31.5725 -95.8039 330° Northwest 413 475 24,900 -850 Descending Fort Worth Center
Thu 01:33:15 PM 31.6672 -95.8683 330° Northwest 408 470 24,100 -1,250 Descending Fort Worth Center
Thu 01:34:15 PM 31.7433 -95.9256 327° Northwest 371 427 22,400 -2,300 Descending Fort Worth Center
Thu 01:35:15 PM 31.8294 -95.9806 332° Northwest 347 399 19,500 -2,700 Descending Fort Worth Center
Thu 01:36:15 PM 31.9156 -96.0353 332° Northwest 339 390 17,000 -2,380 Descending Fort Worth Center
Thu 01:37:16 PM 32.0061 -96.1003 329° Northwest 346 398 14,700 -2,350 Descending Fort Worth Center
Thu 01:38:15 PM 32.0881 -96.1531 331° Northwest 332 382 12,300 -2,218 Descending Fort Worth Center
Thu 01:39:15 PM 32.1700 -96.2133 328° Northwest 341 392 10,300 -1,050 Descending Fort Worth Center
Thu 01:40:15 PM 32.2478 -96.2589 334° Northwest 335 386 10,200 -350 Descending Fort Worth Center
Thu 01:41:15 PM 32.3233 -96.3022 334° Northwest 317 365 9,600 -500 Descending Fort Worth Center
Thu 01:42:15 PM 32.3947 -96.3456 333° Northwest 293 337 9,200 -550 Descending Fort Worth Center
Thu 01:43:15 PM 32.4639 -96.3867 333° Northwest 279 321 8,500 -992 Descending Fort Worth Center
Thu 01:44:16 PM 32.5228 -96.4353 325° Northwest 272 313 7,200 -1,400 Descending Fort Worth Center
Thu 01:45:15 PM 32.5419 -96.5017 289° West 240 276 5,700 -1,714 Descending Fort Worth Center
Thu 01:46:15 PM 32.5906 -96.5653 312° West 240 276 3,800 -1,300 Descending Fort Worth Center
Thu 01:47:15 PM 32.6306 -96.6142 314° West 235 270 3,100 -550 Descending Fort Worth Center
Thu 01:48:15 PM 32.6789 -96.6656 318° Northwest 212 244 2,700 -364 Descending Fort Worth Center
Thu 01:48:54 PM 32.7000 -96.7000 306° West 220 253 2,500 -60 Descending Dallas / Fort Worth TRACON
Thu 01:49:55 PM 32.7333 -96.7333 320° Northwest 156 180 2,600  Climbing Dallas / Fort Worth TRACON
Thu 01:50:55 PM 32.7667 -96.7667 320° Northwest 129 148 2,500 -450 Descending Dallas / Fort Worth TRACON
Thu 01:51:55 PM 32.8000 -96.8000 320° Northwest 137 158 1,700 -800 Descending Dallas / Fort Worth TRACON
Thu 01:52:55 PM 32.8167 -96.8333 301° West 130 150 900 -800 Descending Dallas / Fort Worth TRACON

Login

Don't have an account? Register now (free) for customized features, flight alerts, and more!